Time;durP1;ratioP1;P1;durP2;ratioP2;P2;SDS_P1;SDS_P2;PMS_P1;PMS_P2;Temp;Humidity;BMP_temperature;BMP_pressure;BME280_temperature;BME280_humidity;BME280_pressure;Samples;Min_cycle;Max_cycle;Signal;HPM_P1;HPM_P2
2022/07/22 00:01:21;;;;;;;5.03;4.50;;;28.90;99.90;;;;;;5033089;28;20128;-50
2022/07/22 00:03:47;;;;;;;6.20;4.60;;;28.90;99.90;;;;;;5032506;28;20044;-50
2022/07/22 00:06:13;;;;;;;10.68;5.63;;;28.90;99.90;;;;;;5032329;28;20034;-50
2022/07/22 00:08:39;;;;;;;8.75;4.65;;;29.00;99.90;;;;;;5031865;28;20033;-50
2022/07/22 00:11:05;;;;;;;6.13;5.40;;;29.00;99.90;;;;;;5032417;28;20018;-51
2022/07/22 00:13:31;;;;;;;7.75;5.35;;;29.00;99.90;;;;;;5032306;28;20013;-50
2022/07/22 00:15:57;;;;;;;6.47;5.00;;;29.00;99.90;;;;;;5032420;28;20025;-50
2022/07/22 00:18:23;;;;;;;6.30;5.35;;;29.00;99.90;;;;;;5032239;28;20397;-50
2022/07/22 00:20:49;;;;;;;9.02;6.00;;;29.00;99.90;;;;;;5030848;28;20029;-50
2022/07/22 00:23:15;;;;;;;7.22;5.30;;;29.00;99.90;;;;;;5031216;28;20036;-50
2022/07/22 00:25:40;;;;;;;6.80;5.35;;;29.10;99.90;;;;;;5032165;28;20009;-50
2022/07/22 00:28:06;;;;;;;10.52;5.82;;;29.10;99.90;;;;;;5032081;28;20356;-50
2022/07/22 00:30:32;;;;;;;7.63;5.63;;;29.00;99.90;;;;;;5030854;28;20076;-49
2022/07/22 00:32:58;;;;;;;8.57;5.72;;;29.00;99.90;;;;;;5031949;28;20025;-49
2022/07/22 00:35:24;;;;;;;12.65;6.50;;;29.00;99.90;;;;;;5032108;28;20040;-49
2022/07/22 00:37:50;;;;;;;10.00;6.13;;;29.00;99.90;;;;;;5031902;28;20068;-50
2022/07/22 00:40:16;;;;;;;6.28;5.55;;;29.00;99.90;;;;;;5031974;28;20108;-49
2022/07/22 00:42:41;;;;;;;11.85;5.80;;;29.00;99.90;;;;;;5031800;28;20022;-49
2022/07/22 00:45:08;;;;;;;12.05;6.60;;;28.90;99.90;;;;;;5031654;28;20387;-49
2022/07/22 00:47:34;;;;;;;12.25;6.30;;;28.90;99.90;;;;;;5031840;28;20109;-49
2022/07/22 00:50:00;;;;;;;9.50;5.93;;;28.90;99.90;;;;;;5030567;28;20030;-49
2022/07/22 00:52:26;;;;;;;9.80;6.03;;;28.90;99.90;;;;;;5031629;28;20524;-50
2022/07/22 00:54:52;;;;;;;12.25;6.22;;;28.90;99.90;;;;;;5031685;28;20029;-50
2022/07/22 00:57:18;;;;;;;12.25;7.07;;;28.80;99.90;;;;;;5031706;28;20030;-50
2022/07/22 00:59:44;;;;;;;14.65;7.32;;;28.80;99.90;;;;;;5030999;28;20121;-50
2022/07/22 01:02:10;;;;;;;14.05;7.28;;;28.90;99.90;;;;;;5031533;28;20569;-50
2022/07/22 01:04:37;;;;;;;12.60;7.30;;;28.80;99.90;;;;;;5031347;28;20029;-50
2022/07/22 01:07:03;;;;;;;12.55;6.90;;;28.80;99.90;;;;;;5031416;28;20117;-50
2022/07/22 01:09:29;;;;;;;8.98;6.47;;;28.80;99.90;;;;;;5031380;28;20030;-50
2022/07/22 01:11:55;;;;;;;12.65;6.55;;;28.80;99.90;;;;;;5031286;28;20042;-50
2022/07/22 01:14:20;;;;;;;11.82;7.15;;;28.70;99.90;;;;;;5031246;28;20027;-50
2022/07/22 01:16:46;;;;;;;12.63;6.35;;;28.70;99.90;;;;;;5031489;28;20361;-50
2022/07/22 01:19:12;;;;;;;8.93;6.53;;;28.70;99.90;;;;;;5031389;28;20029;-51
2022/07/22 01:21:38;;;;;;;12.68;7.45;;;28.70;99.90;;;;;;5030520;28;20048;-50
2022/07/22 01:24:04;;;;;;;9.25;6.53;;;28.70;99.90;;;;;;5031354;28;20017;-50
2022/07/22 01:26:30;;;;;;;9.07;6.78;;;28.70;99.90;;;;;;5031222;28;20045;-50
2022/07/22 01:28:56;;;;;;;6.97;6.28;;;28.70;99.90;;;;;;5031085;28;20021;-51
2022/07/22 01:31:21;;;;;;;11.10;7.25;;;28.70;99.90;;;;;;5031119;28;20382;-50
2022/07/22 01:33:47;;;;;;;10.43;7.25;;;28.70;99.90;;;;;;5031542;28;20104;-50
2022/07/22 01:36:13;;;;;;;11.68;7.57;;;28.60;99.90;;;;;;5031076;28;20150;-50
2022/07/22 01:38:39;;;;;;;13.13;8.30;;;28.60;99.90;;;;;;5031189;28;20029;-50
2022/07/22 01:41:05;;;;;;;14.38;7.82;;;28.60;99.90;;;;;;5031058;28;20033;-51
2022/07/22 01:43:31;;;;;;;10.80;7.13;;;28.60;99.90;;;;;;5031042;28;20120;-50
2022/07/22 01:45:56;;;;;;;11.90;7.80;;;28.60;99.90;;;;;;5030799;28;20029;-50
2022/07/22 01:48:23;;;;;;;11.68;7.25;;;28.60;99.90;;;;;;5030867;28;20025;-49
2022/07/22 01:50:49;;;;;;;11.18;7.00;;;28.60;99.90;;;;;;5031079;28;20101;-50
2022/07/22 01:53:15;;;;;;;8.90;7.28;;;28.60;99.90;;;;;;5031117;28;20029;-50
2022/07/22 01:55:42;;;;;;;11.75;6.80;;;28.50;99.90;;;;;;5031029;28;20029;-50
2022/07/22 01:58:08;;;;;;;12.40;7.30;;;28.50;99.90;;;;;;5031063;28;20057;-50
2022/07/22 02:00:34;;;;;;;8.15;7.32;;;28.50;99.90;;;;;;5031229;28;20646;-50
2022/07/22 02:03:00;;;;;;;12.25;7.38;;;28.50;99.90;;;;;;5031154;28;20071;-50
2022/07/22 02:05:26;;;;;;;9.90;7.07;;;28.50;99.90;;;;;;5030813;28;20076;-50
2022/07/22 02:07:52;;;;;;;13.88;7.60;;;28.50;99.90;;;;;;5030896;28;20501;-50
2022/07/22 02:10:18;;;;;;;13.40;6.20;;;28.50;99.90;;;;;;5030965;28;20017;-50
2022/07/22 02:12:44;;;;;;;10.88;7.93;;;28.40;99.90;;;;;;5029464;28;20544;-50
2022/07/22 02:15:10;;;;;;;13.30;7.75;;;28.50;99.90;;;;;;5030588;28;20036;-50
2022/07/22 02:17:36;;;;;;;12.02;7.13;;;28.50;99.90;;;;;;5030741;28;20424;-50
2022/07/22 02:20:03;;;;;;;10.82;7.22;;;28.50;99.90;;;;;;5029318;28;20112;-50
2022/07/22 02:22:29;;;;;;;13.65;8.13;;;28.40;99.90;;;;;;5030674;28;20168;-50
2022/07/22 02:24:54;;;;;;;8.65;7.75;;;28.40;99.90;;;;;;5030662;28;20116;-50
2022/07/22 02:27:20;;;;;;;8.60;6.60;;;28.40;99.90;;;;;;5030758;28;20041;-49
2022/07/22 02:29:46;;;;;;;11.35;7.25;;;28.40;99.90;;;;;;5030602;28;20048;-50
2022/07/22 02:32:12;;;;;;;10.07;7.65;;;28.40;99.90;;;;;;5032071;28;20029;-50
2022/07/22 02:34:37;;;;;;;8.40;7.53;;;28.40;99.90;;;;;;5034312;28;20022;-50
2022/07/22 02:37:03;;;;;;;9.20;7.07;;;28.40;99.90;;;;;;5034321;28;20049;-50
2022/07/22 02:39:29;;;;;;;13.85;8.55;;;28.40;99.90;;;;;;5034211;28;20030;-50
2022/07/22 02:41:56;;;;;;;10.00;7.70;;;28.40;99.90;;;;;;5034453;28;20030;-50
2022/07/22 02:44:22;;;;;;;10.93;9.15;;;28.30;99.90;;;;;;5034893;28;20025;-50
2022/07/22 02:46:47;;;;;;;11.70;8.45;;;28.30;99.90;;;;;;5033974;28;20048;-50
2022/07/22 02:49:13;;;;;;;10.65;8.77;;;28.30;99.90;;;;;;5033990;28;20354;-57
2022/07/22 02:51:39;;;;;;;11.48;8.98;;;28.30;99.90;;;;;;5032695;28;20532;-50
2022/07/22 02:54:05;;;;;;;17.58;9.38;;;28.30;99.90;;;;;;5034010;28;20029;-50
2022/07/22 02:56:31;;;;;;;9.23;8.38;;;28.20;99.90;;;;;;5033861;28;20046;-51
2022/07/22 02:58:57;;;;;;;13.18;8.85;;;28.20;99.90;;;;;;5033754;28;20095;-50
2022/07/22 03:01:23;;;;;;;15.98;7.88;;;28.20;99.90;;;;;;5031071;23;20470;-51
2022/07/22 03:03:48;;;;;;;11.75;8.02;;;28.20;99.90;;;;;;5014015;28;20034;-52
2022/07/22 03:06:14;;;;;;;10.98;7.80;;;28.20;99.90;;;;;;5013932;28;20038;-52
2022/07/22 03:08:40;;;;;;;10.73;7.68;;;28.10;99.90;;;;;;5029297;28;20393;-51
2022/07/22 03:11:06;;;;;;;9.10;7.70;;;28.10;99.90;;;;;;5013990;28;20105;-51
2022/07/22 03:13:32;;;;;;;14.55;8.45;;;28.10;99.90;;;;;;5013887;28;20033;-52
2022/07/22 03:15:57;;;;;;;13.38;7.97;;;28.10;99.90;;;;;;5014011;28;20041;-51
2022/07/22 03:18:23;;;;;;;16.10;8.15;;;28.10;99.90;;;;;;5014036;28;20108;-51
2022/07/22 03:20:49;;;;;;;12.02;7.85;;;28.10;99.90;;;;;;5013687;28;20018;-51
2022/07/22 03:23:15;;;;;;;13.82;8.48;;;28.10;99.90;;;;;;5013833;28;20044;-52
2022/07/22 03:25:41;;;;;;;11.73;7.97;;;28.10;99.90;;;;;;5013684;28;20137;-52
2022/07/22 03:28:07;;;;;;;9.23;7.85;;;28.10;99.90;;;;;;5011837;28;20042;-52
2022/07/22 03:30:33;;;;;;;19.13;8.90;;;28.10;99.90;;;;;;5012210;28;20038;-51
2022/07/22 03:32:59;;;;;;;12.75;7.65;;;28.10;99.90;;;;;;5012265;28;20164;-53
2022/07/22 03:35:25;;;;;;;9.50;7.82;;;28.10;99.90;;;;;;5013831;28;20129;-52
2022/07/22 03:37:51;;;;;;;14.10;8.43;;;28.20;99.90;;;;;;5002668;28;20383;-52
2022/07/22 03:40:17;;;;;;;22.23;9.10;;;28.20;99.90;;;;;;4993663;28;20037;-52
2022/07/22 03:42:42;;;;;;;10.70;7.75;;;28.20;99.90;;;;;;4993609;28;20030;-51
2022/07/22 03:45:09;;;;;;;11.48;8.02;;;28.20;99.90;;;;;;4992096;28;20033;-52
2022/07/22 03:47:35;;;;;;;12.30;7.53;;;28.20;99.90;;;;;;4993430;28;20038;-53
2022/07/22 03:50:02;;;;;;;13.65;8.25;;;28.20;99.90;;;;;;4992596;28;20031;-53
2022/07/22 03:52:28;;;;;;;15.90;8.30;;;28.20;99.90;;;;;;4993834;28;20120;-52
2022/07/22 03:54:54;;;;;;;14.07;7.80;;;28.20;99.90;;;;;;4993615;28;20030;-51
2022/07/22 03:57:20;;;;;;;12.82;8.75;;;28.10;99.90;;;;;;4993576;28;20023;-51
2022/07/22 03:59:46;;;;;;;13.15;8.30;;;28.10;99.90;;;;;;5010863;23;20029;-50
2022/07/22 04:02:12;;;;;;;14.35;8.48;;;28.10;99.90;;;;;;5053037;28;20040;-50
2022/07/22 04:04:38;;;;;;;13.35;8.45;;;28.10;99.90;;;;;;5052488;28;20017;-49
2022/07/22 04:07:04;;;;;;;13.48;9.95;;;28.10;99.90;;;;;;5052411;28;20047;-49
2022/07/22 04:09:30;;;;;;;13.38;9.68;;;28.10;99.90;;;;;;5052592;28;20020;-49
2022/07/22 04:11:55;;;;;;;13.18;9.27;;;28.10;99.90;;;;;;5052513;28;20033;-49
2022/07/22 04:14:21;;;;;;;19.73;9.38;;;28.10;99.90;;;;;;5052287;28;20032;-50
2022/07/22 04:16:48;;;;;;;16.73;9.52;;;28.10;99.90;;;;;;5052244;28;20112;-50
2022/07/22 04:19:14;;;;;;;11.75;9.57;;;28.10;99.90;;;;;;5052327;28;20029;-50
2022/07/22 04:21:40;;;;;;;13.45;8.88;;;28.00;99.90;;;;;;5052310;28;20507;-50
2022/07/22 04:24:06;;;;;;;13.07;9.93;;;28.00;99.90;;;;;;5052132;28;20053;-50
2022/07/22 04:26:32;;;;;;;13.00;9.35;;;28.00;99.90;;;;;;5052004;28;20051;-49
2022/07/22 04:28:58;;;;;;;14.65;9.70;;;28.00;99.90;;;;;;5052273;28;20379;-50
2022/07/22 04:31:24;;;;;;;15.65;10.57;;;28.00;99.90;;;;;;5052032;28;20025;-50
2022/07/22 04:33:49;;;;;;;13.10;9.60;;;28.00;99.90;;;;;;5052263;28;20032;-50
2022/07/22 04:36:15;;;;;;;15.18;9.75;;;27.90;99.90;;;;;;5051906;28;20422;-49
2022/07/22 04:38:41;;;;;;;14.38;9.95;;;27.90;99.90;;;;;;5051822;28;20023;-50
2022/07/22 04:41:07;;;;;;;13.43;10.38;;;27.90;99.90;;;;;;5051745;28;20025;-50
2022/07/22 04:43:32;;;;;;;16.15;9.95;;;27.90;99.90;;;;;;5051763;28;20048;-50
2022/07/22 04:45:58;;;;;;;13.52;9.98;;;27.90;99.90;;;;;;5051961;28;20340;-50
2022/07/22 04:48:24;;;;;;;16.05;10.52;;;27.90;99.90;;;;;;5051523;28;20043;-50
2022/07/22 04:50:50;;;;;;;11.20;9.73;;;27.90;99.90;;;;;;5051686;28;20025;-50
2022/07/22 04:53:15;;;;;;;11.75;9.32;;;27.90;99.90;;;;;;5051473;28;20041;-50
2022/07/22 04:55:41;;;;;;;18.10;9.77;;;27.90;99.90;;;;;;5051296;28;20091;-50
2022/07/22 04:58:07;;;;;;;15.40;10.73;;;27.90;99.90;;;;;;5051494;28;20250;-50
2022/07/22 05:00:33;;;;;;;16.63;9.95;;;27.80;99.90;;;;;;5051397;28;20064;-50
2022/07/22 05:02:59;;;;;;;16.63;9.82;;;27.80;99.90;;;;;;5051681;28;20484;-50
2022/07/22 05:05:25;;;;;;;14.27;11.15;;;27.80;99.90;;;;;;5051449;28;20287;-49
2022/07/22 05:07:50;;;;;;;14.40;10.88;;;27.80;99.90;;;;;;5051210;28;20032;-50
2022/07/22 05:10:16;;;;;;;16.58;10.30;;;27.80;99.90;;;;;;5051228;28;20032;-50
2022/07/22 05:12:42;;;;;;;17.27;10.68;;;27.80;99.90;;;;;;5051201;28;20130;-50
2022/07/22 05:15:08;;;;;;;21.27;10.57;;;27.80;99.90;;;;;;5051230;28;20025;-51
2022/07/22 05:17:34;;;;;;;17.65;10.27;;;27.80;99.90;;;;;;5051401;28;20021;-50
2022/07/22 05:20:03;;;;;;;15.80;10.85;;;27.80;99.90;;;;;;5051350;28;20186;-50
2022/07/22 05:22:29;;;;;;;18.40;12.35;;;27.80;99.90;;;;;;5051104;28;20021;-50
2022/07/22 05:24:54;;;;;;;20.02;11.50;;;27.80;99.90;;;;;;5051200;28;20025;-50
2022/07/22 05:27:20;;;;;;;18.98;12.00;;;27.70;99.90;;;;;;5050911;28;20123;-50
2022/07/22 05:29:46;;;;;;;13.85;10.80;;;27.70;99.90;;;;;;5051054;28;20061;-50
2022/07/22 05:32:12;;;;;;;14.38;11.65;;;27.70;99.90;;;;;;5051154;28;20029;-50
2022/07/22 05:34:37;;;;;;;13.55;11.05;;;27.70;99.90;;;;;;5051021;28;20029;-49
2022/07/22 05:37:03;;;;;;;14.63;10.32;;;27.60;99.90;;;;;;5051098;28;20033;-50
2022/07/22 05:39:29;;;;;;;12.63;11.25;;;27.60;99.90;;;;;;5051096;28;20096;-49
2022/07/22 05:41:55;;;;;;;20.20;11.43;;;27.60;99.90;;;;;;5050806;28;20117;-50
2022/07/22 05:44:21;;;;;;;19.27;11.10;;;27.60;99.90;;;;;;5050834;28;20017;-50
2022/07/22 05:46:46;;;;;;;22.48;11.35;;;27.60;99.90;;;;;;5050835;28;20175;-50
2022/07/22 05:49:12;;;;;;;15.68;10.27;;;27.50;99.90;;;;;;5050964;28;20063;-50
2022/07/22 05:51:38;;;;;;;21.73;11.20;;;27.50;99.90;;;;;;5050839;28;20156;-50
2022/07/22 05:54:04;;;;;;;20.42;11.70;;;27.50;99.90;;;;;;5051070;28;20028;-50
2022/07/22 05:56:29;;;;;;;13.30;11.88;;;27.50;99.90;;;;;;5050836;28;20025;-50
2022/07/22 05:58:58;;;;;;;16.45;11.45;;;27.50;99.90;;;;;;5050848;28;20028;-51
2022/07/22 06:01:24;;;;;;;20.38;11.43;;;27.50;99.90;;;;;;5050652;28;20041;-52
2022/07/22 06:03:50;;;;;;;19.63;11.23;;;27.50;99.90;;;;;;5050794;28;20043;-50
2022/07/22 06:06:16;;;;;;;19.40;12.15;;;27.50;99.90;;;;;;5049493;28;20147;-50
2022/07/22 06:08:42;;;;;;;19.02;11.68;;;27.50;99.90;;;;;;5054687;28;20033;-51
2022/07/22 06:11:08;;;;;;;15.95;11.75;;;27.40;99.90;;;;;;5054634;28;20083;-50
2022/07/22 06:13:34;;;;;;;13.65;12.00;;;27.40;99.90;;;;;;5054898;28;20533;-51
2022/07/22 06:16:00;;;;;;;21.88;12.40;;;27.40;99.90;;;;;;5054787;28;20479;-52
2022/07/22 06:18:26;;;;;;;16.25;12.40;;;27.40;99.90;;;;;;5054474;28;20035;-50
2022/07/22 06:20:52;;;;;;;14.52;12.20;;;27.30;99.90;;;;;;5054374;28;20025;-50
2022/07/22 06:23:18;;;;;;;15.00;11.30;;;27.40;99.90;;;;;;5054355;28;20119;-50
2022/07/22 06:25:44;;;;;;;16.58;11.55;;;27.40;99.90;;;;;;5054323;28;20045;-50
2022/07/22 06:28:10;;;;;;;17.50;12.77;;;27.40;99.90;;;;;;5054286;28;20468;-50
2022/07/22 06:30:36;;;;;;;25.70;12.50;;;27.40;99.90;;;;;;5054570;28;20423;-50
2022/07/22 06:33:02;;;;;;;13.77;10.57;;;27.40;99.90;;;;;;5054061;28;20029;-50
2022/07/22 06:35:28;;;;;;;15.40;10.57;;;27.40;99.90;;;;;;5054158;28;20021;-50
2022/07/22 06:37:54;;;;;;;18.30;11.85;;;27.40;99.90;;;;;;5054239;28;20380;-50
2022/07/22 06:40:20;;;;;;;16.83;11.45;;;27.40;99.90;;;;;;5054028;28;20388;-50
2022/07/22 06:42:46;;;;;;;17.05;10.85;;;27.40;99.90;;;;;;5054049;28;20025;-50
2022/07/22 06:45:12;;;;;;;13.35;9.20;;;27.40;99.90;;;;;;5053921;28;20048;-49
2022/07/22 06:47:37;;;;;;;12.02;8.30;;;27.40;99.90;;;;;;5053961;28;20037;-50
2022/07/22 06:50:05;;;;;;;22.35;9.68;;;27.40;99.90;;;;;;5053849;28;20128;-50
2022/07/22 06:52:31;;;;;;;14.27;9.23;;;27.40;99.90;;;;;;5053708;28;20437;-50
2022/07/22 06:54:56;;;;;;;15.88;9.73;;;27.40;99.90;;;;;;5053772;28;20111;-50
2022/07/22 06:57:23;;;;;;;10.63;8.45;;;27.40;99.90;;;;;;5053723;28;20029;-50
2022/07/22 06:59:49;;;;;;;16.15;9.98;;;27.40;99.90;;;;;;5053444;28;20028;-50
2022/07/22 07:02:15;;;;;;;13.15;9.73;;;27.40;99.90;;;;;;5053591;28;20032;-50
2022/07/22 07:04:40;;;;;;;14.30;9.95;;;27.40;99.90;;;;;;5053791;28;20468;-50
2022/07/22 07:07:07;;;;;;;25.27;8.52;;;27.40;99.90;;;;;;5053622;28;20040;-50
2022/07/22 07:09:32;;;;;;;11.45;8.10;;;27.40;99.90;;;;;;5053459;28;20028;-50
2022/07/22 07:11:58;;;;;;;11.13;8.25;;;27.40;99.90;;;;;;5053438;28;20028;-50
2022/07/22 07:14:24;;;;;;;18.00;9.70;;;27.40;99.90;;;;;;5053547;28;20025;-50
2022/07/22 07:16:50;;;;;;;9.52;6.88;;;27.40;99.90;;;;;;5053378;28;20376;-50
2022/07/22 07:19:15;;;;;;;10.38;7.38;;;27.40;99.90;;;;;;5051848;28;20417;-50
2022/07/22 07:21:41;;;;;;;14.48;8.65;;;27.40;99.90;;;;;;5053418;28;20488;-49
2022/07/22 07:24:07;;;;;;;14.10;7.57;;;27.40;99.90;;;;;;5053269;28;20025;-50
2022/07/22 07:26:33;;;;;;;10.25;7.05;;;27.40;99.90;;;;;;5052992;28;20593;-50
2022/07/22 07:28:58;;;;;;;10.82;6.82;;;27.40;99.90;;;;;;5053042;28;20040;-50
2022/07/22 07:31:24;;;;;;;12.90;7.25;;;27.40;99.90;;;;;;5053035;28;20032;-50
2022/07/22 07:33:50;;;;;;;13.45;6.97;;;27.40;99.90;;;;;;5053038;28;20025;-50
2022/07/22 07:36:16;;;;;;;9.68;7.05;;;27.40;99.90;;;;;;5052920;28;20087;-50
2022/07/22 07:38:42;;;;;;;9.98;6.13;;;27.40;99.90;;;;;;5053196;28;20471;-50
2022/07/22 07:41:08;;;;;;;6.82;6.20;;;27.40;99.90;;;;;;5052749;28;20028;-50
2022/07/22 07:43:34;;;;;;;7.78;6.50;;;27.50;99.90;;;;;;5052964;28;20035;-50
2022/07/22 07:45:59;;;;;;;10.45;6.25;;;27.40;99.90;;;;;;5052637;28;20143;-49
2022/07/22 07:48:25;;;;;;;6.90;6.13;;;27.50;99.90;;;;;;5051361;28;20491;-50
2022/07/22 07:50:51;;;;;;;10.63;6.20;;;27.40;99.90;;;;;;5052689;28;20028;-50
2022/07/22 07:53:18;;;;;;;9.35;7.32;;;27.50;99.90;;;;;;5052549;28;20472;-50
2022/07/22 07:55:45;;;;;;;10.50;6.05;;;27.50;99.90;;;;;;5052665;28;20104;-50
2022/07/22 07:58:11;;;;;;;10.07;6.43;;;27.50;99.90;;;;;;5052847;28;20025;-50
2022/07/22 08:00:38;;;;;;;10.15;6.32;;;27.60;99.90;;;;;;5052219;28;20072;-50
2022/07/22 08:03:05;;;;;;;11.13;6.68;;;27.60;99.90;;;;;;5052493;28;20017;-50
2022/07/22 08:05:31;;;;;;;14.90;7.57;;;27.60;99.90;;;;;;5052304;28;20231;-52
2022/07/22 08:07:57;;;;;;;14.05;7.22;;;27.60;99.90;;;;;;5051044;28;20257;-50
2022/07/22 08:10:23;;;;;;;12.00;6.80;;;27.70;99.90;;;;;;5050989;28;20029;-51
2022/07/22 08:12:49;;;;;;;13.40;7.53;;;27.70;99.90;;;;;;5052248;28;20465;-50
2022/07/22 08:15:15;;;;;;;15.45;6.88;;;27.70;99.90;;;;;;5052297;28;20025;-50
2022/07/22 08:17:41;;;;;;;11.75;6.13;;;27.70;99.90;;;;;;5052330;28;20566;-50
2022/07/22 08:20:08;;;;;;;10.98;7.28;;;27.60;99.90;;;;;;5052203;28;20053;-50
2022/07/22 08:22:34;;;;;;;9.93;7.17;;;27.60;99.90;;;;;;5051901;28;20435;-50
2022/07/22 08:25:00;;;;;;;13.40;7.07;;;27.60;99.90;;;;;;5051753;28;20250;-50
2022/07/22 08:27:26;;;;;;;8.38;6.32;;;27.70;99.90;;;;;;5051779;28;20098;-50
2022/07/22 08:29:52;;;;;;;7.97;6.63;;;27.70;99.90;;;;;;5051606;28;20033;-50
2022/07/22 08:32:18;;;;;;;10.95;6.72;;;27.70;99.90;;;;;;5051980;28;20029;-50
2022/07/22 08:34:44;;;;;;;16.02;7.03;;;27.70;99.90;;;;;;5052106;28;20029;-50
2022/07/22 08:37:10;;;;;;;9.98;5.85;;;27.70;99.90;;;;;;5051630;28;20028;-50
2022/07/22 08:39:36;;;;;;;8.23;6.18;;;27.80;99.90;;;;;;5051235;28;20021;-50
2022/07/22 08:42:03;;;;;;;16.53;7.37;;;27.70;99.90;;;;;;5051806;28;20025;-50
2022/07/22 08:44:32;;;;;;;8.47;6.37;;;27.70;99.90;;;;;;5051510;28;20108;-56
2022/07/22 08:46:59;;;;;;;12.48;6.43;;;27.80;99.90;;;;;;5051324;28;20506;-50
2022/07/22 08:49:25;;;;;;;10.00;6.82;;;27.80;99.90;;;;;;5051494;28;20029;-50
2022/07/22 08:51:51;;;;;;;9.43;6.15;;;27.90;99.90;;;;;;5051263;28;20522;-50
2022/07/22 08:54:17;;;;;;;10.65;6.80;;;27.90;99.90;;;;;;5051486;28;20081;-50
2022/07/22 08:56:47;;;;;;;9.50;6.25;;;27.90;99.90;;;;;;5051225;28;20032;-50
2022/07/22 08:59:13;;;;;;;7.50;6.30;;;28.00;99.90;;;;;;5051191;28;20286;-50
2022/07/22 09:02:02;;;;;;;13.05;6.22;;;28.00;99.90;;;;;;5051201;28;20313;-50
2022/07/22 09:04:28;;;;;;;10.95;7.10;;;28.10;99.90;;;;;;5051240;28;20025;-50
2022/07/22 09:06:54;;;;;;;9.02;6.20;;;28.10;99.90;;;;;;5051125;28;20112;-50
2022/07/22 09:09:31;;;;;;;11.65;6.10;;;28.20;99.90;;;;;;5051174;28;20056;-50
2022/07/22 09:12:05;;;;;;;7.93;5.88;;;28.30;99.90;;;;;;5051268;28;20079;-51
2022/07/22 09:14:48;;;;;;;11.20;5.78;;;28.30;99.90;;;;;;5051126;28;20132;-50
2022/07/22 09:17:23;;;;;;;6.38;5.65;;;28.30;99.90;;;;;;5051046;28;20079;-50
2022/07/22 09:19:49;;;;;;;8.23;6.18;;;28.40;99.90;;;;;;5051095;28;20381;-50
2022/07/22 09:22:34;;;;;;;11.75;6.53;;;28.40;99.90;;;;;;5051145;28;20032;-50
2022/07/22 09:25:27;;;;;;;9.07;6.78;;;28.50;99.90;;;;;;5051014;28;20104;-51
2022/07/22 09:28:14;;;;;;;11.98;10.10;;;28.60;99.90;;;;;;5050809;28;20040;-51
2022/07/22 09:30:44;;;;;;;11.40;9.25;;;28.60;99.90;;;;;;5050931;28;20025;-50
2022/07/22 09:33:10;;;;;;;14.15;10.18;;;28.60;99.90;;;;;;5050879;28;20025;-50
2022/07/22 09:35:39;;;;;;;8.73;6.45;;;28.70;99.90;;;;;;5050948;28;20029;-50
2022/07/22 09:38:07;;;;;;;13.77;6.93;;;28.70;99.90;;;;;;5050947;28;20061;-50
2022/07/22 09:40:47;;;;;;;9.60;6.60;;;28.70;99.90;;;;;;5049537;28;20203;-50
2022/07/22 09:43:16;;;;;;;11.60;6.32;;;28.70;99.90;;;;;;5045067;28;20515;-50
2022/07/22 09:45:49;;;;;;;10.18;6.85;;;28.70;99.90;;;;;;5050425;28;20060;-50
2022/07/22 09:48:18;;;;;;;14.80;7.88;;;28.80;99.90;;;;;;5047993;28;20108;-50
2022/07/22 09:50:45;;;;;;;13.50;11.50;;;28.80;99.90;;;;;;5041744;28;20017;-50
2022/07/22 09:53:11;;;;;;;7.18;5.50;;;28.80;99.90;;;;;;5038669;28;20080;-51
2022/07/22 09:55:44;;;;;;;5.97;5.38;;;28.80;99.90;;;;;;5042794;28;20384;-49
2022/07/22 09:58:13;;;;;;;10.07;6.55;;;28.80;99.90;;;;;;5039988;28;20475;-49
2022/07/22 10:00:42;;;;;;;6.18;5.68;;;28.80;99.90;;;;;;5028901;28;20046;-51
2022/07/22 10:03:12;;;;;;;8.75;5.55;;;28.90;99.90;;;;;;5028670;28;20034;-50
2022/07/22 10:05:41;;;;;;;6.85;6.15;;;28.80;99.90;;;;;;5028685;28;20087;-50
2022/07/22 10:08:08;;;;;;;10.82;6.70;;;28.90;99.90;;;;;;5028759;28;20104;-50
2022/07/22 10:10:36;;;;;;;6.05;5.45;;;28.80;99.90;;;;;;5028743;28;20645;-50
2022/07/22 10:13:04;;;;;;;9.40;5.85;;;28.80;99.90;;;;;;5028877;28;20037;-50
2022/07/22 10:15:30;;;;;;;;;;;28.90;99.90;;;;;;5029199;28;20030;-51
2022/07/22 10:17:58;;;;;;;9.32;5.43;;;28.90;99.90;;;;;;5039040;28;20003;-50
2022/07/22 10:20:29;;;;;;;11.27;6.80;;;29.00;99.90;;;;;;5047921;28;20412;-51
2022/07/22 10:23:03;;;;;;;9.07;5.63;;;29.00;99.90;;;;;;5042131;28;20263;-51
2022/07/22 10:25:32;;;;;;;7.25;6.07;;;29.00;99.90;;;;;;5031353;28;20568;-52
2022/07/22 10:28:04;;;;;;;11.52;6.72;;;29.00;99.90;;;;;;5038140;28;20481;-50
2022/07/22 10:30:40;;;;;;;10.18;6.13;;;29.10;99.90;;;;;;5027034;28;20036;-51
2022/07/22 10:33:14;;;;;;;9.88;8.65;;;29.10;99.90;;;;;;5027864;28;20026;-51
2022/07/22 10:35:43;;;;;;;7.78;6.45;;;29.10;99.90;;;;;;5042897;28;20022;-50
2022/07/22 10:38:11;;;;;;;12.15;6.25;;;29.10;99.90;;;;;;5030357;28;20022;-50
2022/07/22 10:40:50;;;;;;;10.63;6.47;;;29.10;99.90;;;;;;5043015;28;20029;-51
2022/07/22 10:43:17;;;;;;;10.93;6.10;;;29.10;99.90;;;;;;5036015;28;20041;-49
2022/07/22 10:45:48;;;;;;;10.68;6.03;;;29.10;99.90;;;;;;5042845;28;20048;-51
2022/07/22 10:48:25;;;;;;;14.82;6.18;;;29.20;99.90;;;;;;5045092;28;20508;-51
2022/07/22 10:51:04;;;;;;;9.02;5.50;;;29.10;99.90;;;;;;5043839;28;20029;-51
2022/07/22 10:53:56;;;;;;;9.88;5.50;;;29.20;99.90;;;;;;5048453;28;20013;-52
2022/07/22 10:56:23;;;;;;;6.60;5.40;;;29.20;99.90;;;;;;5050233;28;20025;-50
2022/07/22 10:59:13;;;;;;;11.73;5.35;;;29.30;99.90;;;;;;5050132;28;20048;-51
2022/07/22 11:01:42;;;;;;;6.07;5.07;;;29.30;99.90;;;;;;5044776;28;20038;-50
2022/07/22 11:04:15;;;;;;;7.55;5.72;;;29.30;99.90;;;;;;5047710;28;20101;-51
2022/07/22 11:06:42;;;;;;;8.15;6.03;;;29.30;99.90;;;;;;5047660;28;20070;-51
2022/07/22 11:09:10;;;;;;;8.27;5.18;;;29.30;99.90;;;;;;5047075;28;20079;-50
2022/07/22 11:11:40;;;;;;;10.30;5.10;;;29.30;99.90;;;;;;5047258;28;20025;-50
2022/07/22 11:14:26;;;;;;;7.53;4.72;;;29.40;99.90;;;;;;5045271;28;20472;-50
2022/07/22 11:16:55;;;;;;;7.90;4.77;;;29.40;99.90;;;;;;5050699;28;20380;-50
2022/07/22 11:19:23;;;;;;;6.88;4.90;;;29.40;99.90;;;;;;5047520;28;20278;-51
2022/07/22 11:21:51;;;;;;;9.05;5.20;;;29.40;99.90;;;;;;5051257;28;20021;-50
2022/07/22 11:24:18;;;;;;;6.30;4.85;;;29.40;99.90;;;;;;5046440;28;20136;-50
2022/07/22 11:26:50;;;;;;;9.48;5.10;;;29.50;99.90;;;;;;5047500;28;20036;-50
2022/07/22 11:29:30;;;;;;;6.63;5.05;;;29.50;99.90;;;;;;5048193;28;20033;-50
2022/07/22 11:31:58;;;;;;;9.48;5.30;;;29.50;99.90;;;;;;5037745;28;20032;-51
2022/07/22 11:34:25;;;;;;;6.90;5.00;;;29.50;99.90;;;;;;5048471;28;20435;-50
2022/07/22 11:36:53;;;;;;;10.20;5.32;;;29.50;99.90;;;;;;5031765;28;20590;-50
2022/07/22 11:39:21;;;;;;;10.65;5.20;;;29.60;99.90;;;;;;5049286;28;20033;-50
2022/07/22 11:41:47;;;;;;;7.78;4.90;;;29.60;99.90;;;;;;5047656;28;20029;-50
2022/07/22 11:44:28;;;;;;;7.40;4.82;;;29.60;99.90;;;;;;5048594;28;20408;-50
2022/07/22 11:46:58;;;;;;;7.25;4.85;;;29.60;99.90;;;;;;5045316;28;20029;-50
2022/07/22 11:49:25;;;;;;;6.13;5.05;;;29.60;99.90;;;;;;5046889;28;20024;-50
2022/07/22 11:51:52;;;;;;;5.95;5.30;;;29.70;99.90;;;;;;5047553;28;20527;-50
2022/07/22 11:54:18;;;;;;;6.00;5.18;;;29.70;99.90;;;;;;5050205;28;20025;-50
2022/07/22 11:56:44;;;;;;;7.45;5.43;;;29.80;99.90;;;;;;5050543;28;20059;-50
2022/07/22 11:59:13;;;;;;;7.78;4.97;;;29.90;99.90;;;;;;5048289;28;20025;-50
2022/07/22 12:01:43;;;;;;;6.10;5.35;;;29.90;99.90;;;;;;5049206;28;20132;-50
2022/07/22 12:04:10;;;;;;;7.25;4.32;;;30.00;99.90;;;;;;5037696;28;20021;-50
2022/07/22 12:06:39;;;;;;;5.00;4.40;;;30.00;99.90;;;;;;5048999;28;20183;-49
2022/07/22 12:09:12;;;;;;;8.43;4.22;;;30.00;99.90;;;;;;5049246;28;20407;-50
2022/07/22 12:11:40;;;;;;;4.50;4.10;;;29.90;99.90;;;;;;5043593;28;20445;-50
2022/07/22 12:14:12;;;;;;;6.30;4.13;;;29.70;99.90;;;;;;5049808;28;20139;-49
2022/07/22 12:16:38;;;;;;;4.40;4.00;;;29.50;99.90;;;;;;5035651;28;20366;-50
2022/07/22 12:19:12;;;;;;;4.43;4.03;;;29.30;99.90;;;;;;5038323;28;20025;-52
2022/07/22 12:22:02;;;;;;;9.20;4.53;;;29.10;99.90;;;;;;5046902;28;20040;-51
2022/07/22 12:24:35;;;;;;;6.22;4.07;;;28.80;99.90;;;;;;5033808;28;20029;-50
2022/07/22 12:27:04;;;;;;;5.55;3.83;;;28.60;99.90;;;;;;5032404;28;20061;-50
2022/07/22 12:29:42;;;;;;;7.53;3.83;;;28.40;99.90;;;;;;5043508;28;20037;-51
2022/07/22 12:32:23;;;;;;;5.57;3.78;;;28.30;99.90;;;;;;5051161;28;21714;-50
2022/07/22 12:34:56;;;;;;;4.43;3.78;;;28.10;99.90;;;;;;5050806;28;20025;-51
2022/07/22 12:37:44;;;;;;;5.03;3.47;;;28.10;99.90;;;;;;5050915;28;20492;-51
2022/07/22 12:40:13;;;;;;;;;;;28.00;99.90;;;;;;5049878;28;20040;-50